Burna, Kentucky
Current Conditions -  °F | °C
As of 10:35 AM on Tuesday 21 Oct 2014 (Local Time) from K5M9 Reporting Station
Clear Clear  
Wind Chill: 60°   Ceiling: Unl
Heat Index: 60°   Visibility: 10mi
Dew Point: 47°   Wind: 5mph
Humidity: 62%   Direction: 350°N
Pressure: 30.09"   Gusts: NA
Location:  37.25°N, 88.36°W
Report Text: K5M9 211535Z AUTO 35004KT 10SM CLR 16/08 A3009 RMK AO2 T01560083
Loading
Personal Weather Stations






























Interactive Weather Map New forecast layout! Learn more

10-Day Weather Forecast

Advertisements
Track Severe Weather on mobile